• Join FlightAware (Why Join?)
  • Login
  • US Flag 
07:33AM EDT


 

Airport Tracker/Info


-or-


 

Live Flight TrackerFlight Track Log ✈ CSN3452 ✈ 20-Apr-2013 ✈ ZPPP / KMG - ZGSZ / SZX

Flight Track Log - Related Links

Times and Time Zones

All times are in EDT time to prevent confusion due to time zone crossing. See the CSN3452 flight status page for this flight to view local times or setup timezone preferences in your user account.

Time Position Orientation Groundspeed Altitude Reporting Facility
EDT Latitude Longitude Course Direction KTS MPH feet Rate Location/Type
09:13AM 25.0743 103.0770 102° East  Level Estimated
09:14AM 25.0465 103.2247 102° East  Level Estimated
09:15AM 25.0185 103.3723 102° East  Level Estimated
09:16AM 24.9904 103.5199 102° East  Level Estimated
09:17AM 24.9622 103.6674 102° East  Level Estimated
09:18AM 24.9338 103.8149 102° East  Level Estimated
09:19AM 24.9052 103.9622 102° East  Level Estimated
09:20AM 24.8765 104.1096 102° East  Level Estimated
09:21AM 24.8477 104.2568 102° East  Level Estimated
09:22AM 24.8187 104.4040 102° East  Level Estimated
09:23AM 24.7896 104.5511 102° East  Level Estimated
09:24AM 24.7603 104.6981 102° East  Level Estimated
09:25AM 24.7309 104.8451 102° East  Level Estimated
09:26AM 24.7014 104.9920 102° East  Level Estimated
09:27AM 24.6717 105.1388 103° East  Level Estimated
09:28AM 24.6419 105.2856 103° East  Level Estimated
09:29AM 24.6119 105.4323 103° East  Level Estimated
09:30AM 24.5818 105.5789 103° East  Level Estimated
09:31AM 24.5515 105.7254 103° East  Level Estimated
09:32AM 24.5211 105.8719 103° East  Level Estimated
09:33AM 24.4906 106.0183 103° East  Level Estimated
09:34AM 24.4599 106.1647 103° East  Level Estimated
09:35AM 24.4290 106.3109 103° East  Level Estimated
09:36AM 24.3981 106.4571 103° East  Level Estimated
09:37AM 24.3670 106.6032 103° East  Level Estimated
09:38AM 24.3357 106.7493 103° East  Level Estimated
09:39AM 24.3043 106.8952 103° East  Level Estimated
09:40AM 24.2728 107.0412 103° East  Level Estimated
09:41AM 24.2411 107.1870 103° East  Level Estimated
09:42AM 24.2093 107.3327 103° East  Level Estimated
09:43AM 24.1774 107.4784 103° East  Level Estimated
09:44AM 24.1453 107.6240 104° East  Level Estimated
09:45AM 24.1131 107.7696 104° East  Level Estimated
09:46AM 24.0807 107.9150 104° East  Level Estimated
09:47AM 24.0482 108.0604 104° East  Level Estimated
09:48AM 24.0156 108.2057 104° East  Level Estimated
09:49AM 23.9828 108.3510 104° East  Level Estimated
09:50AM 23.9499 108.4961 104° East  Level Estimated
09:51AM 23.9169 108.6412 104° East  Level Estimated
09:52AM 23.8837 108.7863 104° East  Level Estimated
09:53AM 23.8504 108.9312 104° East  Level Estimated
09:54AM 23.8170 109.0761 104° East  Level Estimated
09:55AM 23.7834 109.2209 104° East  Level Estimated
09:56AM 23.7497 109.3656 104° East  Level Estimated
09:57AM 23.7158 109.5102 104° East  Level Estimated
09:58AM 23.6818 109.6548 104° East  Level Estimated
09:59AM 23.6477 109.7993 104° East  Level Estimated
10:00AM 23.6134 109.9437 104° East  Level Estimated
10:01AM 23.5791 110.0881 105° East  Level Estimated
10:02AM 23.5445 110.2324 105° East  Level Estimated
10:03AM 23.5099 110.3765 105° East  Level Estimated
10:04AM 23.4751 110.5207 105° East  Level Estimated
10:05AM 23.4402 110.6647 105° East  Level Estimated
10:06AM 23.4051 110.8087 105° East  Level Estimated
10:07AM 23.3699 110.9526 105° East  Level Estimated
10:08AM 23.3346 111.0964 105° East  Level Estimated
10:09AM 23.2992 111.2401 105° East  Level Estimated
10:10AM 23.2636 111.3838 105° East  Level Estimated
10:11AM 23.2279 111.5273 105° East  Level Estimated
10:12AM 23.1920 111.6709 105° East  Level Estimated
10:13AM 23.1561 111.8143 105° East  Level Estimated
10:14AM 23.1200 111.9576 105° East  Level Estimated
10:15AM 23.0837 112.1009 105° East  Level Estimated
10:16AM 23.0474 112.2441 105° East  Level Estimated
10:17AM 23.0109 112.3872 105° East  Level Estimated
10:18AM 22.9829 112.4967 106° East  Level Estimated
10:19AM 22.9548 112.6061 106° East  Level Estimated
10:20AM 22.9266 112.7155 106° East  Level Estimated
10:21AM 22.8984 112.8249 106° East  Level Estimated
10:22AM 22.8701 112.9342 106° East  Level Estimated
10:23AM 22.8417 113.0434 106° East  Level Estimated
10:24AM 22.8133 113.1526 106° East  Level Estimated
10:25AM 22.7847 113.2618 106° East  Level Estimated
10:26AM 22.7561 113.3709 106° East  Level Estimated
10:27AM 22.7274 113.4799 106° East  Level Estimated
10:28AM 22.6987 113.5890 106° East  Level Estimated
10:29AM 22.6698 113.6979 106° East  Level Estimated
10:30AM 22.6409 113.8069 106° East  Level Estimated
10:31AM 22.6395 113.8124 106° East  Level Estimated
10:32AM 22.6395 113.8124 25° Northeast  Level Estimated
10:33AM 22.6395 113.8124 25° Northeast  Level Estimated
10:34AM 22.6395 113.8124 25° Northeast  Level Estimated
10:35AM 22.6395 113.8124 25° Northeast  Level Estimated
10:36AM 22.6395 113.8124 25° Northeast  Level Estimated
10:37AM 22.6395 113.8124 25° Northeast  Level Estimated
10:38AM 22.6395 113.8124 25° Northeast  Level Estimated
10:39AM 22.6395 113.8124 25° Northeast  Level Estimated
10:40AM 22.6395 113.8124 25° Northeast  Level Estimated
10:41AM 22.6395 113.8124 25° Northeast  Level Estimated
10:42AM 22.6395 113.8124 25° Northeast  Level Estimated
10:43AM 22.6395 113.8124 25° Northeast  Level Estimated
10:44AM 22.6395 113.8124 25° Northeast  Level Estimated
10:45AM 22.6395 113.8124 25° Northeast  Level Estimated
10:46AM 22.6395 113.8124 25° Northeast  Level Estimated
10:47AM 22.6395 113.8124 25° Northeast  Level Estimated
10:48AM 22.6395 113.8124 25° Northeast  Level Estimated
10:49AM 22.6395 113.8124 25° Northeast  Level Estimated
10:50AM 22.6395 113.8124 25° Northeast  Level Estimated
10:51AM 22.6395 113.8124 25° Northeast  Level Estimated